createdAt,value
2023-01-04T00:01:54.071Z,1.65
2023-01-04T00:04:20.763Z,1.60
2023-01-04T00:06:47.287Z,1.57
2023-01-04T00:09:13.933Z,1.49
2023-01-04T00:11:40.490Z,1.45
2023-01-04T00:14:07.085Z,1.38
2023-01-04T00:16:33.688Z,1.25
2023-01-04T00:19:00.291Z,1.02
2023-01-04T00:21:29.217Z,1.01
2023-01-04T00:23:58.543Z,0.95
2023-01-04T00:26:28.284Z,0.99
2023-01-04T00:29:00.825Z,0.90
2023-01-04T00:31:28.690Z,0.83
2023-01-04T00:33:56.985Z,0.84
2023-01-04T00:36:23.998Z,0.88
2023-01-04T00:39:07.341Z,0.89
2023-01-04T00:42:01.955Z,0.93
2023-01-04T00:44:30.064Z,0.98
2023-01-04T00:46:57.638Z,1.03
2023-01-04T00:49:24.810Z,1.10
2023-01-04T00:51:51.707Z,1.23
2023-01-04T00:54:18.865Z,1.18
2023-01-04T00:56:45.499Z,1.07
2023-01-04T00:59:13.880Z,1.05
2023-01-04T01:01:41.625Z,1.18
2023-01-04T01:04:12.185Z,1.26
2023-01-04T01:06:38.895Z,1.42
2023-01-04T01:09:05.829Z,1.53
2023-01-04T01:11:32.475Z,1.50
2023-01-04T01:13:59.477Z,1.64
2023-01-04T01:16:53.051Z,1.70
2023-01-04T01:19:14.787Z,1.69
2023-01-04T01:21:41.614Z,1.66
2023-01-04T01:24:14.862Z,1.63
2023-01-04T01:26:41.599Z,1.58
2023-01-04T01:29:08.175Z,1.52
2023-01-04T01:31:34.808Z,1.46
2023-01-04T01:34:02.223Z,1.48
2023-01-04T01:36:28.883Z,1.46
2023-01-04T01:38:55.916Z,1.50
2023-01-04T01:41:28.292Z,1.53
2023-01-04T01:43:54.888Z,1.62
2023-01-04T01:46:36.030Z,1.74
2023-01-04T01:49:09.663Z,1.77
2023-01-04T01:51:36.360Z,1.84
2023-01-04T01:54:08.890Z,1.89
2023-01-04T01:56:37.949Z,1.92
2023-01-04T01:59:06.002Z,1.98
2023-01-04T02:01:33.760Z,1.99
2023-01-04T02:04:01.775Z,2.00
2023-01-04T02:06:35.523Z,2.09
2023-01-04T02:09:03.291Z,2.12
2023-01-04T02:11:29.955Z,2.01
2023-01-04T02:14:17.293Z,2.08
2023-01-04T02:17:09.458Z,2.20
2023-01-04T02:20:01.320Z,2.28
2023-01-04T02:22:33.866Z,2.32
2023-01-04T02:25:22.079Z,2.30
2023-01-04T02:27:57.766Z,2.29
2023-01-04T02:30:42.987Z,2.20
2023-01-04T02:33:24.744Z,2.11
2023-01-04T02:36:04.055Z,1.92
2023-01-04T02:38:49.440Z,1.82
2023-01-04T02:41:21.735Z,1.80
2023-01-04T02:44:34.643Z,1.82
2023-01-04T02:47:11.582Z,1.80
2023-01-04T02:50:03.999Z,1.73
2023-01-04T02:52:31.832Z,1.62
2023-01-04T02:54:58.702Z,1.56
2023-01-04T02:57:48.499Z,1.52
2023-01-04T03:00:58.099Z,1.54
2023-01-04T03:03:51.327Z,1.49
2023-01-04T03:06:25.294Z,1.47
2023-01-04T03:09:15.034Z,1.43
2023-01-04T03:12:06.322Z,1.56
2023-01-04T03:14:44.502Z,1.64
2023-01-04T03:17:14.638Z,1.42
2023-01-04T03:19:51.861Z,1.26
2023-01-04T03:22:59.682Z,1.16
2023-01-04T03:25:51.971Z,1.13
2023-01-04T03:28:40.191Z,1.19
2023-01-04T03:31:35.058Z,1.30
2023-01-04T03:34:20.319Z,1.35
2023-01-04T03:36:55.266Z,1.32
2023-01-04T03:39:50.448Z,1.17
2023-01-04T03:43:04.341Z,1.05
2023-01-04T03:45:59.534Z,0.94
2023-01-04T03:48:38.921Z,0.87
2023-01-04T03:51:14.535Z,0.82
2023-01-04T03:53:51.263Z,0.81
2023-01-04T03:56:19.578Z,0.87
2023-01-04T03:58:46.497Z,0.87
2023-01-04T04:01:13.457Z,1.06
2023-01-04T04:03:58.841Z,1.13
2023-01-04T04:06:44.036Z,1.13
2023-01-04T04:09:10.603Z,1.08
2023-01-04T04:11:37.185Z,1.04
2023-01-04T04:14:03.805Z,1.05
2023-01-04T04:16:30.521Z,1.13
2023-01-04T04:18:57.222Z,1.26
2023-01-04T04:21:23.866Z,1.21
2023-01-04T04:23:50.734Z,1.27
2023-01-04T04:26:17.923Z,1.32
2023-01-04T04:28:44.739Z,1.31
2023-01-04T04:31:11.813Z,1.33
2023-01-04T04:33:38.946Z,1.35
2023-01-04T04:36:06.841Z,1.49
2023-01-04T04:38:33.429Z,1.63
2023-01-04T04:41:18.682Z,1.69
2023-01-04T04:43:45.297Z,1.65
2023-01-04T04:46:11.993Z,1.74
2023-01-04T04:48:38.609Z,1.62
2023-01-04T04:51:05.491Z,1.57
2023-01-04T04:53:32.041Z,1.59
2023-01-04T04:55:58.735Z,1.49
2023-01-04T04:58:26.098Z,1.75
2023-01-04T05:00:52.939Z,1.93
2023-01-04T05:03:19.723Z,2.20
2023-01-04T05:05:46.353Z,2.27
2023-01-04T05:08:12.953Z,2.44
2023-01-04T05:10:39.855Z,2.48
2023-01-04T05:13:10.630Z,2.61
2023-01-04T05:15:39.781Z,2.64
2023-01-04T05:18:09.054Z,2.63
2023-01-04T05:20:36.197Z,2.52
2023-01-04T05:23:03.199Z,2.62
2023-01-04T05:25:29.809Z,2.52
2023-01-04T05:27:56.549Z,2.25
2023-01-04T05:30:42.005Z,1.93
2023-01-04T05:33:09.220Z,1.79
2023-01-04T05:35:35.783Z,2.02
2023-01-04T05:38:02.415Z,2.18
2023-01-04T05:40:29.224Z,2.61
2023-01-04T05:42:56.014Z,2.94
2023-01-04T05:45:23.029Z,3.01
2023-01-04T05:47:51.031Z,3.07
2023-01-04T05:50:18.261Z,3.00
2023-01-04T05:52:44.935Z,3.04
2023-01-04T05:55:11.684Z,3.12
2023-01-04T05:57:38.372Z,3.13
2023-01-04T06:00:07.126Z,3.21
2023-01-04T06:02:39.134Z,3.14
2023-01-04T06:05:06.237Z,3.17
2023-01-04T06:07:33.117Z,3.18
2023-01-04T06:09:59.901Z,3.07
2023-01-04T06:12:26.565Z,3.02
2023-01-04T06:14:53.169Z,2.97
2023-01-04T06:17:20.168Z,3.04
2023-01-04T06:19:46.842Z,2.92
2023-01-04T06:22:13.563Z,2.95
2023-01-04T06:24:40.201Z,3.02
2023-01-04T06:27:06.803Z,2.96
2023-01-04T06:29:33.348Z,2.93
2023-01-04T06:31:59.963Z,2.91
2023-01-04T06:34:30.926Z,2.79
2023-01-04T06:36:58.632Z,2.74
2023-01-04T06:39:25.286Z,2.72
2023-01-04T06:41:51.885Z,2.74
2023-01-04T06:44:18.427Z,2.69
2023-01-04T06:46:45.023Z,2.66
2023-01-04T06:49:11.567Z,2.78
2023-01-04T06:51:38.188Z,2.77
2023-01-04T06:54:04.764Z,2.78
2023-01-04T06:56:32.233Z,2.69
2023-01-04T06:58:59.462Z,2.69
2023-01-04T07:01:26.322Z,2.68
2023-01-04T07:03:52.985Z,2.72
2023-01-04T07:06:19.841Z,2.68
2023-01-04T07:08:46.422Z,2.79
2023-01-04T07:11:13.013Z,2.90
2023-01-04T07:13:39.616Z,2.97
2023-01-04T07:16:06.601Z,3.01
2023-01-04T07:18:33.217Z,2.84
2023-01-04T07:20:59.879Z,2.83
2023-01-04T07:23:26.505Z,2.87
2023-01-04T07:25:53.070Z,3.00
2023-01-04T07:28:38.313Z,2.99
2023-01-04T07:31:06.838Z,2.96
2023-01-04T07:33:33.675Z,3.02
2023-01-04T07:36:05.470Z,3.17
2023-01-04T07:38:33.552Z,3.13
2023-01-04T07:41:00.203Z,3.26
2023-01-04T07:43:28.479Z,3.22
2023-01-04T07:45:55.756Z,3.22
2023-01-04T07:48:23.178Z,3.34
2023-01-04T07:50:51.343Z,3.45
2023-01-04T07:53:19.319Z,3.47
2023-01-04T07:55:46.203Z,3.68
2023-01-04T07:58:14.198Z,3.78
2023-01-04T08:00:41.264Z,3.82
2023-01-04T08:03:09.012Z,3.95
2023-01-04T08:05:35.932Z,4.18
2023-01-04T08:08:02.609Z,4.31
2023-01-04T08:10:29.205Z,4.43
2023-01-04T08:12:59.704Z,4.55
2023-01-04T08:15:26.942Z,4.82
2023-01-04T08:17:53.593Z,5.10
2023-01-04T08:20:20.166Z,5.29
2023-01-04T08:22:46.729Z,5.40
2023-01-04T08:25:13.597Z,5.38
2023-01-04T08:27:41.768Z,5.71
2023-01-04T08:30:08.937Z,5.88
2023-01-04T08:32:35.552Z,5.94
2023-01-04T08:35:02.185Z,6.26
2023-01-04T08:37:30.049Z,6.40
2023-01-04T08:39:56.627Z,6.37
2023-01-04T08:42:30.740Z,5.94
2023-01-04T08:45:00.853Z,5.67
2023-01-04T08:47:28.872Z,5.55
2023-01-04T08:49:55.724Z,5.51
2023-01-04T08:52:22.359Z,5.52
2023-01-04T08:54:49.517Z,5.64
2023-01-04T08:57:17.310Z,5.55
2023-01-04T08:59:43.933Z,5.36
2023-01-04T09:02:19.132Z,5.40
2023-01-04T09:04:45.856Z,5.32
2023-01-04T09:07:12.441Z,5.45
2023-01-04T09:09:39.113Z,5.41
2023-01-04T09:12:05.897Z,5.42
2023-01-04T09:14:32.529Z,5.77
2023-01-04T09:16:59.077Z,5.92
2023-01-04T09:19:26.136Z,6.03
2023-01-04T09:21:52.880Z,6.16
2023-01-04T09:24:19.603Z,6.31
2023-01-04T09:26:47.450Z,6.37
2023-01-04T09:29:14.061Z,6.42
2023-01-04T09:31:40.926Z,6.57
2023-01-04T09:34:16.929Z,6.65
2023-01-04T09:36:48.326Z,6.79
2023-01-04T09:39:22.383Z,6.80
2023-01-04T09:41:57.368Z,6.87
2023-01-04T09:45:03.046Z,6.80
2023-01-04T09:47:29.739Z,6.86
2023-01-04T09:50:36.063Z,6.99
2023-01-04T09:53:08.702Z,7.37
2023-01-04T09:55:40.867Z,7.75
2023-01-04T09:58:16.369Z,8.10
2023-01-04T10:00:51.427Z,8.17
2023-01-04T10:03:25.463Z,8.10
2023-01-04T10:05:55.374Z,7.99
2023-01-04T10:08:22.332Z,7.86
2023-01-04T10:10:54.734Z,7.79
2023-01-04T10:14:00.328Z,7.86
2023-01-04T10:17:11.326Z,8.52
2023-01-04T10:23:10.983Z,8.39
2023-01-04T10:25:57.532Z,8.46
2023-01-04T10:29:11.322Z,8.52
2023-01-04T10:31:44.315Z,8.12
2023-01-04T10:34:18.992Z,7.88
2023-01-04T10:36:47.519Z,7.88
2023-01-04T10:39:32.507Z,7.76
2023-01-04T10:42:18.652Z,7.45
2023-01-04T10:45:16.434Z,7.49
2023-01-04T10:47:45.868Z,7.42
2023-01-04T10:50:30.530Z,7.24
2023-01-04T10:53:08.056Z,7.22
2023-01-04T10:56:23.604Z,7.18
2023-01-04T10:58:36.189Z,7.11
2023-01-04T11:01:16.247Z,7.13
2023-01-04T11:03:57.108Z,7.33
2023-01-04T11:06:31.001Z,7.46
2023-01-04T11:09:25.152Z,7.28
2023-01-04T11:11:56.516Z,7.43
2023-01-04T11:14:25.409Z,7.36
2023-01-04T11:17:01.216Z,7.40
2023-01-04T11:19:29.710Z,7.43
2023-01-04T11:22:18.046Z,7.54
2023-01-04T11:25:32.561Z,7.69
2023-01-04T11:27:44.696Z,7.71
2023-01-04T11:30:21.539Z,7.74
2023-01-04T11:33:10.999Z,7.82
2023-01-04T11:35:46.160Z,7.89
2023-01-04T11:38:20.889Z,7.93
2023-01-04T11:40:55.099Z,8.13
2023-01-04T11:43:23.425Z,8.24
2023-01-04T11:46:13.331Z,8.05
2023-01-04T11:48:43.368Z,8.22
2023-01-04T11:51:30.154Z,8.14
2023-01-04T11:54:04.905Z,8.08
2023-01-04T11:56:57.486Z,8.14
2023-01-04T11:59:25.721Z,8.22
2023-01-04T12:02:59.481Z,8.26
2023-01-04T12:05:28.803Z,8.22
2023-01-04T12:07:57.951Z,8.20
2023-01-04T12:10:27.589Z,8.37
2023-01-04T12:12:55.594Z,8.35
2023-01-04T12:15:57.711Z,8.47
2023-01-04T12:18:28.648Z,8.52
2023-01-04T12:20:57.322Z,8.79
2023-01-04T12:23:24.072Z,8.79
2023-01-04T12:25:52.372Z,8.82
2023-01-04T12:28:32.777Z,8.77
2023-01-04T12:31:22.152Z,8.70
2023-01-04T12:33:58.930Z,8.63
2023-01-04T12:36:37.566Z,8.63
2023-01-04T12:39:15.953Z,8.75
2023-01-04T12:42:00.547Z,8.82
2023-01-04T12:44:36.262Z,8.74
2023-01-04T12:47:47.588Z,8.80
2023-01-04T12:50:17.268Z,8.72
2023-01-04T12:55:44.896Z,8.82
2023-01-04T12:58:58.251Z,8.84
2023-01-04T13:01:29.454Z,8.80
2023-01-04T13:04:21.372Z,8.83
2023-01-04T13:06:48.048Z,9.12
2023-01-04T13:09:24.916Z,8.94
2023-01-04T13:12:04.191Z,8.85
2023-01-04T13:14:40.478Z,9.06
2023-01-04T13:17:20.933Z,9.21
2023-01-04T13:19:48.656Z,9.02
2023-01-04T13:22:29.771Z,9.12
2023-01-04T13:24:59.218Z,9.12
2023-01-04T13:27:27.192Z,9.23
2023-01-04T13:29:53.933Z,9.30
2023-01-04T13:32:28.403Z,9.34
2023-01-04T13:34:55.549Z,9.48
2023-01-04T13:37:28.280Z,9.55
2023-01-04T13:40:16.646Z,9.65
2023-01-04T13:42:47.733Z,9.67
2023-01-04T13:45:29.042Z,9.48
2023-01-04T13:47:58.658Z,9.24
2023-01-04T13:50:36.841Z,9.44
2023-01-04T13:53:08.037Z,9.52
2023-01-04T13:55:38.542Z,9.43
2023-01-04T13:58:15.489Z,9.89
2023-01-04T14:00:49.987Z,9.84
2023-01-04T14:03:25.382Z,10.01
2023-01-04T14:06:02.888Z,10.08
2023-01-04T14:08:41.647Z,10.02
2023-01-04T14:11:41.384Z,9.77
2023-01-04T14:14:23.259Z,9.81
2023-01-04T14:16:51.763Z,9.85
2023-01-04T14:19:46.442Z,9.82
2023-01-04T14:22:35.490Z,9.84
2023-01-04T14:25:48.273Z,9.87
2023-01-04T14:28:30.151Z,9.79
2023-01-04T14:30:59.938Z,9.82
2023-01-04T14:33:40.962Z,9.80
2023-01-04T14:36:10.407Z,9.75
2023-01-04T14:38:38.715Z,9.65
2023-01-04T14:41:28.335Z,9.70
2023-01-04T14:44:00.787Z,9.72
2023-01-04T14:46:30.175Z,9.69
2023-01-04T14:48:57.375Z,9.65
2023-01-04T14:51:33.390Z,9.73
2023-01-04T14:54:00.182Z,9.62
2023-01-04T14:56:26.811Z,9.86
2023-01-04T14:58:53.468Z,9.91
2023-01-04T15:01:20.161Z,9.80
2023-01-04T15:03:46.898Z,9.76
2023-01-04T15:06:14.044Z,9.77
2023-01-04T15:08:40.676Z,9.72
2023-01-04T15:11:07.261Z,9.61
2023-01-04T15:13:39.619Z,9.71
2023-01-04T15:16:09.851Z,9.64
2023-01-04T15:18:36.526Z,9.61
2023-01-04T15:21:03.864Z,9.60
2023-01-04T15:23:30.451Z,9.63
2023-01-04T15:25:57.061Z,9.72
2023-01-04T15:28:26.025Z,9.72
2023-01-04T15:30:52.691Z,9.73
2023-01-04T15:33:19.720Z,9.57
2023-01-04T15:35:46.495Z,9.51
2023-01-04T15:38:18.337Z,9.45
2023-01-04T15:40:45.207Z,9.72
2023-01-04T15:43:11.947Z,9.60
2023-01-04T15:45:39.586Z,9.62
2023-01-04T15:48:08.024Z,9.52
2023-01-04T15:50:37.377Z,9.52
2023-01-04T15:53:05.463Z,9.42
2023-01-04T15:55:36.356Z,9.30
2023-01-04T15:58:04.717Z,9.20
2023-01-04T16:00:32.791Z,9.05
2023-01-04T16:02:59.756Z,9.13
2023-01-04T16:05:26.440Z,9.18
2023-01-04T16:07:53.200Z,9.04
2023-01-04T16:10:19.861Z,8.85
2023-01-04T16:12:51.434Z,8.70
2023-01-04T16:15:23.204Z,8.79
2023-01-04T16:17:50.215Z,8.70
2023-01-04T16:20:18.405Z,8.73
2023-01-04T16:22:45.590Z,8.54
2023-01-04T16:25:13.073Z,8.45
2023-01-04T16:27:40.900Z,8.42
2023-01-04T16:30:11.846Z,8.42
2023-01-04T16:32:41.620Z,8.34
2023-01-04T16:35:08.805Z,8.37
2023-01-04T16:37:35.495Z,8.31
2023-01-04T16:40:06.787Z,8.29
2023-01-04T16:42:35.275Z,8.32
2023-01-04T16:45:02.075Z,8.35
2023-01-04T16:47:28.687Z,8.28
2023-01-04T16:49:55.317Z,8.36
2023-01-04T16:52:22.141Z,8.37
2023-01-04T16:54:49.204Z,8.34
2023-01-04T16:57:15.889Z,8.43
2023-01-04T16:59:42.633Z,8.29
2023-01-04T17:02:12.033Z,8.45
2023-01-04T17:04:38.769Z,8.34
2023-01-04T17:07:06.070Z,8.39
2023-01-04T17:09:32.778Z,8.40
2023-01-04T17:12:45.071Z,8.41
2023-01-04T17:15:07.969Z,8.57
2023-01-04T17:17:37.462Z,8.31
2023-01-04T17:20:06.299Z,8.33
2023-01-04T17:22:34.824Z,8.45
2023-01-04T17:25:01.785Z,8.63
2023-01-04T17:27:28.385Z,8.62
2023-01-04T17:29:54.972Z,8.44
2023-01-04T17:32:21.650Z,8.35
2023-01-04T17:34:49.603Z,8.49
2023-01-04T17:37:16.211Z,8.53
2023-01-04T17:39:42.865Z,8.44
2023-01-04T17:42:09.756Z,8.49
2023-01-04T17:44:36.360Z,8.40
2023-01-04T17:47:02.964Z,8.49
2023-01-04T17:49:32.153Z,8.71
2023-01-04T17:51:59.522Z,8.54
2023-01-04T17:54:26.898Z,8.61
2023-01-04T17:56:53.601Z,8.32
2023-01-04T17:59:20.405Z,8.35
2023-01-04T18:01:47.188Z,8.48
2023-01-04T18:04:13.999Z,8.60
2023-01-04T18:06:40.637Z,8.51
2023-01-04T18:09:08.039Z,8.41
2023-01-04T18:11:35.710Z,8.72
2023-01-04T18:14:05.905Z,8.69
2023-01-04T18:16:56.255Z,8.43
2023-01-04T18:19:25.935Z,8.37
2023-01-04T18:21:52.883Z,8.52
2023-01-04T18:24:36.760Z,8.61
2023-01-04T18:27:21.436Z,8.57
2023-01-04T18:29:48.434Z,8.66
2023-01-04T18:32:15.105Z,8.60
2023-01-04T18:34:41.676Z,8.55
2023-01-04T18:37:08.329Z,8.53
2023-01-04T18:39:34.995Z,8.67
2023-01-04T18:42:01.668Z,8.62
2023-01-04T18:44:33.547Z,8.63
2023-01-04T18:47:02.091Z,8.71
2023-01-04T18:49:31.010Z,8.58
2023-01-04T18:51:57.617Z,8.54
2023-01-04T18:54:24.422Z,8.54
2023-01-04T18:56:56.983Z,8.58
2023-01-04T18:59:25.454Z,8.73
2023-01-04T19:01:52.087Z,8.65
2023-01-04T19:04:19.038Z,8.71
2023-01-04T19:06:45.789Z,8.77
2023-01-04T19:09:12.434Z,8.73
2023-01-04T19:11:39.216Z,8.82
2023-01-04T19:14:06.043Z,8.70
2023-01-04T19:16:32.704Z,8.71
2023-01-04T19:19:00.322Z,8.58
2023-01-04T19:21:27.879Z,8.63
2023-01-04T19:23:54.750Z,8.48
2023-01-04T19:26:22.305Z,8.54
2023-01-04T19:28:49.390Z,8.67
2023-01-04T19:31:17.352Z,8.69
2023-01-04T19:33:44.556Z,8.71
2023-01-04T19:36:14.043Z,8.73
2023-01-04T19:38:41.296Z,8.73
2023-01-04T19:41:08.725Z,8.68
2023-01-04T19:43:35.749Z,8.77
2023-01-04T19:46:02.430Z,8.84
2023-01-04T19:48:30.712Z,9.02
2023-01-04T19:51:12.763Z,9.09
2023-01-04T19:53:39.946Z,8.97
2023-01-04T19:56:07.708Z,9.13
2023-01-04T19:58:35.885Z,9.13
2023-01-04T20:01:02.507Z,9.23
2023-01-04T20:03:29.355Z,9.10
2023-01-04T20:06:00.487Z,9.15
2023-01-04T20:08:27.111Z,9.19
2023-01-04T20:10:55.103Z,9.24
2023-01-04T20:13:21.740Z,9.24
2023-01-04T20:15:48.348Z,9.23
2023-01-04T20:18:15.053Z,9.31
2023-01-04T20:20:43.659Z,9.30
2023-01-04T20:23:11.164Z,9.34
2023-01-04T20:25:48.177Z,9.55
2023-01-04T20:28:15.984Z,9.60
2023-01-04T20:30:42.746Z,9.78
2023-01-04T20:33:10.193Z,9.75
2023-01-04T20:35:42.847Z,9.80
2023-01-04T20:38:10.864Z,9.94
2023-01-04T20:40:38.642Z,9.97
2023-01-04T20:43:23.832Z,9.96
2023-01-04T20:45:50.527Z,10.15
2023-01-04T20:48:17.276Z,9.99
2023-01-04T20:50:44.095Z,10.14
2023-01-04T20:53:11.469Z,10.25
2023-01-04T20:55:42.499Z,10.39
2023-01-04T20:58:16.144Z,10.39
2023-01-04T21:00:43.849Z,10.27
2023-01-04T21:03:11.555Z,10.11
2023-01-04T21:05:41.130Z,10.27
2023-01-04T21:08:08.242Z,10.19
2023-01-04T21:10:35.869Z,10.34
2023-01-04T21:13:03.680Z,10.23
2023-01-04T21:15:30.779Z,10.52
2023-01-04T21:17:57.943Z,10.26
2023-01-04T21:20:24.833Z,10.40
2023-01-04T21:22:51.434Z,10.50
2023-01-04T21:25:18.035Z,10.45
2023-01-04T21:27:44.698Z,10.46
2023-01-04T21:30:11.988Z,10.23
2023-01-04T21:32:38.674Z,10.26
2023-01-04T21:35:06.100Z,10.41
2023-01-04T21:37:32.795Z,10.39
2023-01-04T21:39:59.377Z,10.23
2023-01-04T21:42:25.976Z,10.35
2023-01-04T21:44:52.573Z,10.37
2023-01-04T21:47:19.164Z,10.26
2023-01-04T21:49:45.798Z,10.34
2023-01-04T21:52:12.590Z,10.15
2023-01-04T21:54:39.339Z,9.83
2023-01-04T21:57:09.218Z,9.76
2023-01-04T21:59:36.124Z,9.67
2023-01-04T22:02:03.055Z,9.58
2023-01-04T22:04:29.919Z,9.65
2023-01-04T22:06:56.677Z,9.69
2023-01-04T22:09:23.357Z,9.78
2023-01-04T22:11:50.293Z,9.94
2023-01-04T22:14:17.958Z,10.12
2023-01-04T22:16:47.289Z,9.99
2023-01-04T22:19:14.977Z,9.79
2023-01-04T22:21:42.661Z,9.66
2023-01-04T22:24:12.107Z,9.52
2023-01-04T22:26:39.085Z,9.24
2023-01-04T22:29:05.766Z,9.18
2023-01-04T22:31:32.731Z,9.05
2023-01-04T22:33:59.536Z,8.90
2023-01-04T22:36:26.183Z,8.71
2023-01-04T22:38:55.219Z,8.68
2023-01-04T22:41:24.933Z,8.52
2023-01-04T22:43:56.956Z,8.58
2023-01-04T22:46:24.205Z,8.42
2023-01-04T22:48:50.905Z,8.46
2023-01-04T22:51:19.022Z,8.56
2023-01-04T22:53:45.879Z,8.45
2023-01-04T22:56:21.068Z,8.72
2023-01-04T22:58:54.980Z,8.72
2023-01-04T23:01:24.653Z,8.90
2023-01-04T23:03:52.050Z,9.04
2023-01-04T23:06:19.196Z,9.02
2023-01-04T23:08:45.793Z,9.06
2023-01-04T23:11:17.770Z,9.23
2023-01-04T23:13:44.580Z,9.26
2023-01-04T23:16:14.454Z,9.26
2023-01-04T23:18:41.351Z,9.17
2023-01-04T23:21:08.753Z,9.14
2023-01-04T23:23:36.173Z,9.19
2023-01-04T23:26:24.761Z,9.23
2023-01-04T23:28:52.068Z,9.31
2023-01-04T23:31:22.548Z,9.10
2023-01-04T23:33:53.285Z,9.14
2023-01-04T23:36:24.491Z,9.25
2023-01-04T23:38:53.764Z,9.05
2023-01-04T23:41:20.815Z,9.04
2023-01-04T23:43:47.843Z,8.91
2023-01-04T23:46:17.891Z,9.15
2023-01-04T23:48:44.774Z,9.22
2023-01-04T23:51:14.789Z,9.15
2023-01-04T23:53:41.459Z,9.09
2023-01-04T23:56:14.608Z,9.16
2023-01-04T23:58:41.591Z,9.19
